sensor_id;sensor_type;location;lat;lon;timestamp;P1;durP1;ratioP1;P2;durP2;ratioP2
79592;SDS011;69074;45.164;9.704;2023-04-24T00:00:04;17.9;;;16.0;;
79592;SDS011;69074;45.164;9.704;2023-04-24T00:02:29;17.9;;;16.0;;
79592;SDS011;69074;45.164;9.704;2023-04-24T00:04:54;17.9;;;16.0;;
79592;SDS011;69074;45.164;9.704;2023-04-24T00:07:19;15.1;;;13.6;;
79592;SDS011;69074;45.164;9.704;2023-04-24T00:09:44;15.1;;;13.6;;
79592;SDS011;69074;45.164;9.704;2023-04-24T00:12:09;15.1;;;13.6;;
79592;SDS011;69074;45.164;9.704;2023-04-24T00:14:34;15.1;;;13.6;;
79592;SDS011;69074;45.164;9.704;2023-04-24T00:16:59;15.1;;;13.6;;
79592;SDS011;69074;45.164;9.704;2023-04-24T00:19:24;15.1;;;13.6;;
79592;SDS011;69074;45.164;9.704;2023-04-24T00:21:49;13.2;;;11.1;;
79592;SDS011;69074;45.164;9.704;2023-04-24T00:24:14;13.2;;;11.1;;
79592;SDS011;69074;45.164;9.704;2023-04-24T00:26:39;13.2;;;11.1;;
79592;SDS011;69074;45.164;9.704;2023-04-24T00:29:04;13.2;;;11.1;;
79592;SDS011;69074;45.164;9.704;2023-04-24T00:31:29;13.2;;;11.1;;
79592;SDS011;69074;45.164;9.704;2023-04-24T00:33:54;13.2;;;11.1;;
79592;SDS011;69074;45.164;9.704;2023-04-24T00:36:19;10.8;;;9.7;;
79592;SDS011;69074;45.164;9.704;2023-04-24T00:38:44;10.8;;;9.7;;
79592;SDS011;69074;45.164;9.704;2023-04-24T00:41:09;10.8;;;9.7;;
79592;SDS011;69074;45.164;9.704;2023-04-24T00:43:34;10.8;;;9.7;;
79592;SDS011;69074;45.164;9.704;2023-04-24T00:45:59;10.8;;;9.7;;
79592;SDS011;69074;45.164;9.704;2023-04-24T00:48:24;10.8;;;9.7;;
79592;SDS011;69074;45.164;9.704;2023-04-24T00:50:49;10.8;;;9.7;;
79592;SDS011;69074;45.164;9.704;2023-04-24T00:53:14;10.0;;;8.8;;
79592;SDS011;69074;45.164;9.704;2023-04-24T00:55:39;10.0;;;8.8;;
79592;SDS011;69074;45.164;9.704;2023-04-24T00:58:04;10.0;;;8.8;;
79592;SDS011;69074;45.164;9.704;2023-04-24T01:00:29;10.0;;;8.8;;
79592;SDS011;69074;45.164;9.704;2023-04-24T01:02:54;10.0;;;8.8;;
79592;SDS011;69074;45.164;9.704;2023-04-24T01:05:19;10.0;;;8.8;;
79592;SDS011;69074;45.164;9.704;2023-04-24T01:07:45;7.2;;;6.5;;
79592;SDS011;69074;45.164;9.704;2023-04-24T01:10:09;7.2;;;6.5;;
79592;SDS011;69074;45.164;9.704;2023-04-24T01:12:34;7.2;;;6.5;;
79592;SDS011;69074;45.164;9.704;2023-04-24T01:14:59;7.2;;;6.5;;
79592;SDS011;69074;45.164;9.704;2023-04-24T01:17:24;7.2;;;6.5;;
79592;SDS011;69074;45.164;9.704;2023-04-24T01:19:49;7.2;;;6.5;;
79592;SDS011;69074;45.164;9.704;2023-04-24T01:22:14;5.8;;;5.2;;
79592;SDS011;69074;45.164;9.704;2023-04-24T01:24:39;5.8;;;5.2;;
79592;SDS011;69074;45.164;9.704;2023-04-24T01:27:04;5.8;;;5.2;;
79592;SDS011;69074;45.164;9.704;2023-04-24T01:29:29;5.8;;;5.2;;
79592;SDS011;69074;45.164;9.704;2023-04-24T01:31:54;5.8;;;5.2;;
79592;SDS011;69074;45.164;9.704;2023-04-24T01:34:19;5.8;;;5.2;;
79592;SDS011;69074;45.164;9.704;2023-04-24T01:36:45;5.1;;;4.7;;
79592;SDS011;69074;45.164;9.704;2023-04-24T01:39:09;5.1;;;4.7;;
79592;SDS011;69074;45.164;9.704;2023-04-24T01:41:34;5.1;;;4.7;;
79592;SDS011;69074;45.164;9.704;2023-04-24T01:43:59;5.1;;;4.7;;
79592;SDS011;69074;45.164;9.704;2023-04-24T01:46:24;5.1;;;4.7;;
79592;SDS011;69074;45.164;9.704;2023-04-24T01:48:49;5.1;;;4.7;;
79592;SDS011;69074;45.164;9.704;2023-04-24T01:51:14;5.6;;;4.9;;
79592;SDS011;69074;45.164;9.704;2023-04-24T01:53:39;5.6;;;4.9;;
79592;SDS011;69074;45.164;9.704;2023-04-24T01:56:04;5.6;;;4.9;;
79592;SDS011;69074;45.164;9.704;2023-04-24T01:58:29;5.6;;;4.9;;
79592;SDS011;69074;45.164;9.704;2023-04-24T02:00:55;5.6;;;4.9;;
79592;SDS011;69074;45.164;9.704;2023-04-24T02:03:19;5.6;;;4.9;;
79592;SDS011;69074;45.164;9.704;2023-04-24T02:05:44;5.6;;;4.9;;
79592;SDS011;69074;45.164;9.704;2023-04-24T02:08:09;5.1;;;4.6;;
79592;SDS011;69074;45.164;9.704;2023-04-24T02:10:34;5.1;;;4.6;;
79592;SDS011;69074;45.164;9.704;2023-04-24T02:12:59;5.1;;;4.6;;
79592;SDS011;69074;45.164;9.704;2023-04-24T02:15:24;5.1;;;4.6;;
79592;SDS011;69074;45.164;9.704;2023-04-24T02:17:49;5.1;;;4.6;;
79592;SDS011;69074;45.164;9.704;2023-04-24T02:20:14;5.1;;;4.6;;
79592;SDS011;69074;45.164;9.704;2023-04-24T02:22:39;4.3;;;3.7;;
79592;SDS011;69074;45.164;9.704;2023-04-24T02:25:04;4.3;;;3.7;;
79592;SDS011;69074;45.164;9.704;2023-04-24T02:27:29;4.3;;;3.7;;
79592;SDS011;69074;45.164;9.704;2023-04-24T02:29:54;4.3;;;3.7;;
79592;SDS011;69074;45.164;9.704;2023-04-24T02:32:19;4.3;;;3.7;;
79592;SDS011;69074;45.164;9.704;2023-04-24T02:34:44;4.3;;;3.7;;
79592;SDS011;69074;45.164;9.704;2023-04-24T02:37:09;4.7;;;3.8;;
79592;SDS011;69074;45.164;9.704;2023-04-24T02:39:34;4.7;;;3.8;;
79592;SDS011;69074;45.164;9.704;2023-04-24T02:41:59;4.7;;;3.8;;
79592;SDS011;69074;45.164;9.704;2023-04-24T02:44:24;4.7;;;3.8;;
79592;SDS011;69074;45.164;9.704;2023-04-24T02:46:49;4.7;;;3.8;;
79592;SDS011;69074;45.164;9.704;2023-04-24T02:49:14;4.7;;;3.8;;
79592;SDS011;69074;45.164;9.704;2023-04-24T02:51:39;5.4;;;3.7;;
79592;SDS011;69074;45.164;9.704;2023-04-24T02:54:04;5.4;;;3.7;;
79592;SDS011;69074;45.164;9.704;2023-04-24T02:56:29;5.4;;;3.7;;
79592;SDS011;69074;45.164;9.704;2023-04-24T02:58:54;5.4;;;3.7;;
79592;SDS011;69074;45.164;9.704;2023-04-24T03:01:19;5.4;;;3.7;;
79592;SDS011;69074;45.164;9.704;2023-04-24T03:03:44;5.4;;;3.7;;
79592;SDS011;69074;45.164;9.704;2023-04-24T03:06:09;3.8;;;3.2;;
79592;SDS011;69074;45.164;9.704;2023-04-24T03:08:34;3.8;;;3.2;;
79592;SDS011;69074;45.164;9.704;2023-04-24T03:10:59;3.8;;;3.2;;
79592;SDS011;69074;45.164;9.704;2023-04-24T03:13:24;3.8;;;3.2;;
79592;SDS011;69074;45.164;9.704;2023-04-24T03:15:49;3.8;;;3.2;;
79592;SDS011;69074;45.164;9.704;2023-04-24T03:18:14;3.8;;;3.2;;
79592;SDS011;69074;45.164;9.704;2023-04-24T03:20:39;3.8;;;3.2;;
79592;SDS011;69074;45.164;9.704;2023-04-24T03:23:04;4.6;;;3.6;;
79592;SDS011;69074;45.164;9.704;2023-04-24T03:25:29;4.6;;;3.6;;
79592;SDS011;69074;45.164;9.704;2023-04-24T03:27:54;4.6;;;3.6;;
79592;SDS011;69074;45.164;9.704;2023-04-24T03:30:19;4.6;;;3.6;;
79592;SDS011;69074;45.164;9.704;2023-04-24T03:32:44;4.6;;;3.6;;
79592;SDS011;69074;45.164;9.704;2023-04-24T03:35:09;4.6;;;3.6;;
79592;SDS011;69074;45.164;9.704;2023-04-24T03:37:34;4.7;;;3.8;;
79592;SDS011;69074;45.164;9.704;2023-04-24T03:39:59;4.7;;;3.8;;
79592;SDS011;69074;45.164;9.704;2023-04-24T03:42:24;4.7;;;3.8;;
79592;SDS011;69074;45.164;9.704;2023-04-24T03:44:49;4.7;;;3.8;;
79592;SDS011;69074;45.164;9.704;2023-04-24T03:47:14;4.7;;;3.8;;
79592;SDS011;69074;45.164;9.704;2023-04-24T03:49:39;4.7;;;3.8;;
79592;SDS011;69074;45.164;9.704;2023-04-24T03:52:04;4.5;;;4.1;;
79592;SDS011;69074;45.164;9.704;2023-04-24T03:54:29;4.5;;;4.1;;
79592;SDS011;69074;45.164;9.704;2023-04-24T03:56:54;4.5;;;4.1;;
79592;SDS011;69074;45.164;9.704;2023-04-24T03:59:19;4.5;;;4.1;;
79592;SDS011;69074;45.164;9.704;2023-04-24T04:01:44;4.5;;;4.1;;
79592;SDS011;69074;45.164;9.704;2023-04-24T04:04:09;4.5;;;4.1;;
79592;SDS011;69074;45.164;9.704;2023-04-24T04:06:34;5.1;;;4.1;;
79592;SDS011;69074;45.164;9.704;2023-04-24T04:08:59;5.1;;;4.1;;
79592;SDS011;69074;45.164;9.704;2023-04-24T04:11:24;5.1;;;4.1;;
79592;SDS011;69074;45.164;9.704;2023-04-24T04:13:49;5.1;;;4.1;;
79592;SDS011;69074;45.164;9.704;2023-04-24T04:16:14;5.1;;;4.1;;
79592;SDS011;69074;45.164;9.704;2023-04-24T04:18:39;5.1;;;4.1;;
79592;SDS011;69074;45.164;9.704;2023-04-24T04:21:04;4.7;;;4.2;;
79592;SDS011;69074;45.164;9.704;2023-04-24T04:23:29;4.7;;;4.2;;
79592;SDS011;69074;45.164;9.704;2023-04-24T04:25:54;4.7;;;4.2;;
79592;SDS011;69074;45.164;9.704;2023-04-24T04:28:19;4.7;;;4.2;;
79592;SDS011;69074;45.164;9.704;2023-04-24T04:30:44;4.7;;;4.2;;
79592;SDS011;69074;45.164;9.704;2023-04-24T04:33:09;4.7;;;4.2;;
79592;SDS011;69074;45.164;9.704;2023-04-24T04:35:34;4.7;;;4.2;;
79592;SDS011;69074;45.164;9.704;2023-04-24T04:37:59;4.4;;;4.0;;
79592;SDS011;69074;45.164;9.704;2023-04-24T04:40:24;4.4;;;4.0;;
79592;SDS011;69074;45.164;9.704;2023-04-24T04:42:49;4.4;;;4.0;;
79592;SDS011;69074;45.164;9.704;2023-04-24T04:45:14;4.4;;;4.0;;
79592;SDS011;69074;45.164;9.704;2023-04-24T04:47:39;4.4;;;4.0;;
79592;SDS011;69074;45.164;9.704;2023-04-24T04:50:04;4.4;;;4.0;;
79592;SDS011;69074;45.164;9.704;2023-04-24T04:52:29;5.0;;;4.3;;
79592;SDS011;69074;45.164;9.704;2023-04-24T04:54:54;5.0;;;4.3;;
79592;SDS011;69074;45.164;9.704;2023-04-24T04:57:19;5.0;;;4.3;;
79592;SDS011;69074;45.164;9.704;2023-04-24T04:59:44;5.0;;;4.3;;
79592;SDS011;69074;45.164;9.704;2023-04-24T05:02:09;5.0;;;4.3;;
79592;SDS011;69074;45.164;9.704;2023-04-24T05:04:34;5.0;;;4.3;;
79592;SDS011;69074;45.164;9.704;2023-04-24T05:06:59;4.9;;;4.1;;
79592;SDS011;69074;45.164;9.704;2023-04-24T05:09:24;4.9;;;4.1;;
79592;SDS011;69074;45.164;9.704;2023-04-24T05:11:49;4.9;;;4.1;;
79592;SDS011;69074;45.164;9.704;2023-04-24T05:14:14;4.9;;;4.1;;
79592;SDS011;69074;45.164;9.704;2023-04-24T05:16:39;4.9;;;4.1;;
79592;SDS011;69074;45.164;9.704;2023-04-24T05:19:04;4.9;;;4.1;;
79592;SDS011;69074;45.164;9.704;2023-04-24T05:21:29;5.2;;;4.7;;
79592;SDS011;69074;45.164;9.704;2023-04-24T05:23:54;5.2;;;4.7;;
79592;SDS011;69074;45.164;9.704;2023-04-24T05:26:19;5.2;;;4.7;;
79592;SDS011;69074;45.164;9.704;2023-04-24T05:28:44;5.2;;;4.7;;
79592;SDS011;69074;45.164;9.704;2023-04-24T05:31:09;5.2;;;4.7;;
79592;SDS011;69074;45.164;9.704;2023-04-24T05:33:34;5.2;;;4.7;;
79592;SDS011;69074;45.164;9.704;2023-04-24T05:35:59;7.9;;;5.5;;
79592;SDS011;69074;45.164;9.704;2023-04-24T05:38:24;7.9;;;5.5;;
79592;SDS011;69074;45.164;9.704;2023-04-24T05:40:49;7.9;;;5.5;;
79592;SDS011;69074;45.164;9.704;2023-04-24T05:43:14;7.9;;;5.5;;
79592;SDS011;69074;45.164;9.704;2023-04-24T05:45:39;7.9;;;5.5;;
79592;SDS011;69074;45.164;9.704;2023-04-24T05:48:04;7.9;;;5.5;;
79592;SDS011;69074;45.164;9.704;2023-04-24T05:50:29;7.9;;;5.5;;
79592;SDS011;69074;45.164;9.704;2023-04-24T05:52:54;4.9;;;4.5;;
79592;SDS011;69074;45.164;9.704;2023-04-24T05:55:19;4.9;;;4.5;;
79592;SDS011;69074;45.164;9.704;2023-04-24T05:57:44;4.9;;;4.5;;
79592;SDS011;69074;45.164;9.704;2023-04-24T06:00:10;4.9;;;4.5;;
79592;SDS011;69074;45.164;9.704;2023-04-24T06:02:34;4.9;;;4.5;;
79592;SDS011;69074;45.164;9.704;2023-04-24T06:04:59;4.9;;;4.5;;
79592;SDS011;69074;45.164;9.704;2023-04-24T06:07:24;5.0;;;4.3;;
79592;SDS011;69074;45.164;9.704;2023-04-24T06:09:49;5.0;;;4.3;;
79592;SDS011;69074;45.164;9.704;2023-04-24T06:12:14;5.0;;;4.3;;
79592;SDS011;69074;45.164;9.704;2023-04-24T06:14:39;5.0;;;4.3;;
79592;SDS011;69074;45.164;9.704;2023-04-24T06:17:04;5.0;;;4.3;;
79592;SDS011;69074;45.164;9.704;2023-04-24T06:19:29;5.0;;;4.3;;
79592;SDS011;69074;45.164;9.704;2023-04-24T06:21:54;4.6;;;3.6;;
79592;SDS011;69074;45.164;9.704;2023-04-24T06:24:19;4.6;;;3.6;;
79592;SDS011;69074;45.164;9.704;2023-04-24T06:26:44;4.6;;;3.6;;
79592;SDS011;69074;45.164;9.704;2023-04-24T06:29:09;4.6;;;3.6;;
79592;SDS011;69074;45.164;9.704;2023-04-24T06:31:34;4.6;;;3.6;;
79592;SDS011;69074;45.164;9.704;2023-04-24T06:33:59;4.6;;;3.6;;
79592;SDS011;69074;45.164;9.704;2023-04-24T06:38:23;3.9;;;3.5;;
79592;SDS011;69074;45.164;9.704;2023-04-24T06:40:48;3.9;;;3.5;;
79592;SDS011;69074;45.164;9.704;2023-04-24T06:43:13;3.9;;;3.5;;
79592;SDS011;69074;45.164;9.704;2023-04-24T06:45:38;3.9;;;3.5;;
79592;SDS011;69074;45.164;9.704;2023-04-24T06:48:03;3.9;;;3.5;;
79592;SDS011;69074;45.164;9.704;2023-04-24T06:50:28;3.9;;;3.5;;
79592;SDS011;69074;45.164;9.704;2023-04-24T06:52:53;5.0;;;3.4;;
79592;SDS011;69074;45.164;9.704;2023-04-24T06:55:18;5.0;;;3.4;;
79592;SDS011;69074;45.164;9.704;2023-04-24T06:57:43;5.0;;;3.4;;
79592;SDS011;69074;45.164;9.704;2023-04-24T07:00:09;5.0;;;3.4;;
79592;SDS011;69074;45.164;9.704;2023-04-24T07:02:33;5.0;;;3.4;;
79592;SDS011;69074;45.164;9.704;2023-04-24T07:04:58;5.0;;;3.4;;
79592;SDS011;69074;45.164;9.704;2023-04-24T07:07:24;3.5;;;3.0;;
79592;SDS011;69074;45.164;9.704;2023-04-24T07:09:49;3.5;;;3.0;;
79592;SDS011;69074;45.164;9.704;2023-04-24T07:12:13;3.5;;;3.0;;
79592;SDS011;69074;45.164;9.704;2023-04-24T07:14:38;3.5;;;3.0;;
79592;SDS011;69074;45.164;9.704;2023-04-24T07:17:04;3.5;;;3.0;;
79592;SDS011;69074;45.164;9.704;2023-04-24T07:19:28;3.5;;;3.0;;
79592;SDS011;69074;45.164;9.704;2023-04-24T07:21:53;4.5;;;3.1;;
79592;SDS011;69074;45.164;9.704;2023-04-24T07:24:18;4.5;;;3.1;;
79592;SDS011;69074;45.164;9.704;2023-04-24T07:26:43;4.5;;;3.1;;
79592;SDS011;69074;45.164;9.704;2023-04-24T07:29:08;4.5;;;3.1;;
79592;SDS011;69074;45.164;9.704;2023-04-24T07:31:33;4.5;;;3.1;;
79592;SDS011;69074;45.164;9.704;2023-04-24T07:33:59;4.5;;;3.1;;
79592;SDS011;69074;45.164;9.704;2023-04-24T07:36:24;4.5;;;3.3;;
79592;SDS011;69074;45.164;9.704;2023-04-24T07:38:48;4.5;;;3.3;;
79592;SDS011;69074;45.164;9.704;2023-04-24T07:41:13;4.5;;;3.3;;
79592;SDS011;69074;45.164;9.704;2023-04-24T07:43:38;4.5;;;3.3;;
79592;SDS011;69074;45.164;9.704;2023-04-24T07:46:03;4.5;;;3.3;;
79592;SDS011;69074;45.164;9.704;2023-04-24T07:48:28;4.5;;;3.3;;
79592;SDS011;69074;45.164;9.704;2023-04-24T07:50:54;4.2;;;3.8;;
79592;SDS011;69074;45.164;9.704;2023-04-24T07:53:18;4.2;;;3.8;;
79592;SDS011;69074;45.164;9.704;2023-04-24T07:55:43;4.2;;;3.8;;
79592;SDS011;69074;45.164;9.704;2023-04-24T07:58:08;4.2;;;3.8;;
79592;SDS011;69074;45.164;9.704;2023-04-24T08:00:33;4.2;;;3.8;;
79592;SDS011;69074;45.164;9.704;2023-04-24T08:02:58;4.2;;;3.8;;
79592;SDS011;69074;45.164;9.704;2023-04-24T08:05:23;4.2;;;3.8;;
79592;SDS011;69074;45.164;9.704;2023-04-24T08:07:49;7.9;;;7.1;;
79592;SDS011;69074;45.164;9.704;2023-04-24T08:10:14;7.9;;;7.1;;
79592;SDS011;69074;45.164;9.704;2023-04-24T08:12:38;7.9;;;7.1;;
79592;SDS011;69074;45.164;9.704;2023-04-24T08:15:04;7.9;;;7.1;;
79592;SDS011;69074;45.164;9.704;2023-04-24T08:17:28;7.9;;;7.1;;
79592;SDS011;69074;45.164;9.704;2023-04-24T08:19:53;7.9;;;7.1;;
79592;SDS011;69074;45.164;9.704;2023-04-24T08:22:19;9.6;;;8.5;;
79592;SDS011;69074;45.164;9.704;2023-04-24T08:24:44;9.6;;;8.5;;
79592;SDS011;69074;45.164;9.704;2023-04-24T08:27:09;9.6;;;8.5;;
79592;SDS011;69074;45.164;9.704;2023-04-24T08:29:33;9.6;;;8.5;;
79592;SDS011;69074;45.164;9.704;2023-04-24T08:31:58;9.6;;;8.5;;
79592;SDS011;69074;45.164;9.704;2023-04-24T08:34:24;9.6;;;8.5;;
79592;SDS011;69074;45.164;9.704;2023-04-24T08:36:49;13.7;;;12.3;;
79592;SDS011;69074;45.164;9.704;2023-04-24T08:39:14;13.7;;;12.3;;
79592;SDS011;69074;45.164;9.704;2023-04-24T08:41:39;13.7;;;12.3;;
79592;SDS011;69074;45.164;9.704;2023-04-24T08:44:04;13.7;;;12.3;;
79592;SDS011;69074;45.164;9.704;2023-04-24T08:46:29;13.7;;;12.3;;
79592;SDS011;69074;45.164;9.704;2023-04-24T08:48:53;13.7;;;12.3;;
79592;SDS011;69074;45.164;9.704;2023-04-24T08:51:18;15.4;;;13.3;;
79592;SDS011;69074;45.164;9.704;2023-04-24T08:53:44;15.4;;;13.3;;
79592;SDS011;69074;45.164;9.704;2023-04-24T08:56:09;15.4;;;13.3;;
79592;SDS011;69074;45.164;9.704;2023-04-24T08:58:34;15.4;;;13.3;;
79592;SDS011;69074;45.164;9.704;2023-04-24T09:00:59;15.4;;;13.3;;
79592;SDS011;69074;45.164;9.704;2023-04-24T09:03:24;15.4;;;13.3;;
79592;SDS011;69074;45.164;9.704;2023-04-24T09:05:49;15.4;;;13.3;;
79592;SDS011;69074;45.164;9.704;2023-04-24T09:08:14;15.4;;;13.8;;
79592;SDS011;69074;45.164;9.704;2023-04-24T09:10:39;15.4;;;13.8;;
79592;SDS011;69074;45.164;9.704;2023-04-24T09:13:04;15.4;;;13.8;;
79592;SDS011;69074;45.164;9.704;2023-04-24T09:15:29;15.4;;;13.8;;
79592;SDS011;69074;45.164;9.704;2023-04-24T09:17:54;15.4;;;13.8;;
79592;SDS011;69074;45.164;9.704;2023-04-24T09:20:19;15.4;;;13.8;;
79592;SDS011;69074;45.164;9.704;2023-04-24T09:22:44;18.1;;;15.7;;
79592;SDS011;69074;45.164;9.704;2023-04-24T09:25:09;18.1;;;15.7;;
79592;SDS011;69074;45.164;9.704;2023-04-24T09:27:34;18.1;;;15.7;;
79592;SDS011;69074;45.164;9.704;2023-04-24T09:29:59;18.1;;;15.7;;
79592;SDS011;69074;45.164;9.704;2023-04-24T09:32:24;18.1;;;15.7;;
79592;SDS011;69074;45.164;9.704;2023-04-24T09:34:49;18.1;;;15.7;;
79592;SDS011;69074;45.164;9.704;2023-04-24T09:37:18;17.0;;;15.2;;
79592;SDS011;69074;45.164;9.704;2023-04-24T09:39:39;17.0;;;15.2;;
79592;SDS011;69074;45.164;9.704;2023-04-24T09:42:04;17.0;;;15.2;;
79592;SDS011;69074;45.164;9.704;2023-04-24T09:44:29;17.0;;;15.2;;
79592;SDS011;69074;45.164;9.704;2023-04-24T09:46:54;17.0;;;15.2;;
79592;SDS011;69074;45.164;9.704;2023-04-24T09:49:21;17.0;;;15.2;;
79592;SDS011;69074;45.164;9.704;2023-04-24T09:51:44;19.1;;;17.2;;
79592;SDS011;69074;45.164;9.704;2023-04-24T09:54:17;19.1;;;17.2;;
79592;SDS011;69074;45.164;9.704;2023-04-24T09:56:34;19.1;;;17.2;;
79592;SDS011;69074;45.164;9.704;2023-04-24T09:59:03;19.1;;;17.2;;
79592;SDS011;69074;45.164;9.704;2023-04-24T10:01:29;19.1;;;17.2;;
79592;SDS011;69074;45.164;9.704;2023-04-24T10:03:49;19.1;;;17.2;;
79592;SDS011;69074;45.164;9.704;2023-04-24T10:06:14;19.0;;;17.1;;
79592;SDS011;69074;45.164;9.704;2023-04-24T10:08:39;19.0;;;17.1;;
79592;SDS011;69074;45.164;9.704;2023-04-24T10:11:04;19.0;;;17.1;;
79592;SDS011;69074;45.164;9.704;2023-04-24T10:13:29;19.0;;;17.1;;
79592;SDS011;69074;45.164;9.704;2023-04-24T10:15:54;19.0;;;17.1;;
79592;SDS011;69074;45.164;9.704;2023-04-24T10:18:19;19.0;;;17.1;;
79592;SDS011;69074;45.164;9.704;2023-04-24T10:20:44;19.0;;;17.1;;
79592;SDS011;69074;45.164;9.704;2023-04-24T10:23:09;20.3;;;18.1;;
79592;SDS011;69074;45.164;9.704;2023-04-24T10:25:34;20.3;;;18.1;;
79592;SDS011;69074;45.164;9.704;2023-04-24T10:27:59;20.3;;;18.1;;
79592;SDS011;69074;45.164;9.704;2023-04-24T10:30:24;20.3;;;18.1;;
79592;SDS011;69074;45.164;9.704;2023-04-24T10:32:49;20.3;;;18.1;;
79592;SDS011;69074;45.164;9.704;2023-04-24T10:35:15;20.3;;;18.1;;
79592;SDS011;69074;45.164;9.704;2023-04-24T10:37:39;22.7;;;20.3;;
79592;SDS011;69074;45.164;9.704;2023-04-24T10:40:04;22.7;;;20.3;;
79592;SDS011;69074;45.164;9.704;2023-04-24T10:42:29;22.7;;;20.3;;
79592;SDS011;69074;45.164;9.704;2023-04-24T10:44:54;22.7;;;20.3;;
79592;SDS011;69074;45.164;9.704;2023-04-24T10:47:19;22.7;;;20.3;;
79592;SDS011;69074;45.164;9.704;2023-04-24T10:49:44;22.7;;;20.3;;
79592;SDS011;69074;45.164;9.704;2023-04-24T10:52:09;21.3;;;19.1;;
79592;SDS011;69074;45.164;9.704;2023-04-24T10:54:34;21.3;;;19.1;;
79592;SDS011;69074;45.164;9.704;2023-04-24T10:57:30;21.3;;;19.1;;
79592;SDS011;69074;45.164;9.704;2023-04-24T10:59:24;21.3;;;19.1;;
79592;SDS011;69074;45.164;9.704;2023-04-24T11:01:52;21.3;;;19.1;;
79592;SDS011;69074;45.164;9.704;2023-04-24T11:04:14;21.3;;;19.1;;
79592;SDS011;69074;45.164;9.704;2023-04-24T11:06:39;23.0;;;20.7;;
79592;SDS011;69074;45.164;9.704;2023-04-24T11:09:04;23.0;;;20.7;;
79592;SDS011;69074;45.164;9.704;2023-04-24T11:11:29;23.0;;;20.7;;
79592;SDS011;69074;45.164;9.704;2023-04-24T11:14:02;23.0;;;20.7;;
79592;SDS011;69074;45.164;9.704;2023-04-24T11:16:20;23.0;;;20.7;;
79592;SDS011;69074;45.164;9.704;2023-04-24T11:18:44;23.0;;;20.7;;
79592;SDS011;69074;45.164;9.704;2023-04-24T11:21:10;23.6;;;21.4;;
79592;SDS011;69074;45.164;9.704;2023-04-24T11:23:35;23.6;;;21.4;;
79592;SDS011;69074;45.164;9.704;2023-04-24T11:26:09;23.6;;;21.4;;
79592;SDS011;69074;45.164;9.704;2023-04-24T11:28:24;23.6;;;21.4;;
79592;SDS011;69074;45.164;9.704;2023-04-24T11:30:49;23.6;;;21.4;;
79592;SDS011;69074;45.164;9.704;2023-04-24T11:33:14;23.6;;;21.4;;
79592;SDS011;69074;45.164;9.704;2023-04-24T11:35:39;23.6;;;21.4;;
79592;SDS011;69074;45.164;9.704;2023-04-24T11:38:04;23.9;;;21.5;;
79592;SDS011;69074;45.164;9.704;2023-04-24T11:40:29;23.9;;;21.5;;
79592;SDS011;69074;45.164;9.704;2023-04-24T11:42:54;23.9;;;21.5;;
79592;SDS011;69074;45.164;9.704;2023-04-24T11:45:20;23.9;;;21.5;;
79592;SDS011;69074;45.164;9.704;2023-04-24T11:47:44;23.9;;;21.5;;
79592;SDS011;69074;45.164;9.704;2023-04-24T11:50:10;23.9;;;21.5;;
79592;SDS011;69074;45.164;9.704;2023-04-24T11:52:36;28.7;;;25.6;;
79592;SDS011;69074;45.164;9.704;2023-04-24T11:54:59;28.7;;;25.6;;
79592;SDS011;69074;45.164;9.704;2023-04-24T11:57:24;28.7;;;25.6;;
79592;SDS011;69074;45.164;9.704;2023-04-24T11:59:49;28.7;;;25.6;;
79592;SDS011;69074;45.164;9.704;2023-04-24T12:02:21;28.7;;;25.6;;
79592;SDS011;69074;45.164;9.704;2023-04-24T12:04:39;28.7;;;25.6;;
79592;SDS011;69074;45.164;9.704;2023-04-24T12:07:04;31.7;;;28.5;;
79592;SDS011;69074;45.164;9.704;2023-04-24T12:09:29;31.7;;;28.5;;
79592;SDS011;69074;45.164;9.704;2023-04-24T12:11:54;31.7;;;28.5;;
79592;SDS011;69074;45.164;9.704;2023-04-24T12:14:19;31.7;;;28.5;;
79592;SDS011;69074;45.164;9.704;2023-04-24T12:16:47;31.7;;;28.5;;
79592;SDS011;69074;45.164;9.704;2023-04-24T12:19:09;31.7;;;28.5;;
79592;SDS011;69074;45.164;9.704;2023-04-24T12:21:34;33.5;;;30.1;;
79592;SDS011;69074;45.164;9.704;2023-04-24T12:23:59;33.5;;;30.1;;
79592;SDS011;69074;45.164;9.704;2023-04-24T12:26:24;33.5;;;30.1;;
79592;SDS011;69074;45.164;9.704;2023-04-24T12:28:49;33.5;;;30.1;;
79592;SDS011;69074;45.164;9.704;2023-04-24T12:31:14;33.5;;;30.1;;
79592;SDS011;69074;45.164;9.704;2023-04-24T12:33:39;33.5;;;30.1;;
79592;SDS011;69074;45.164;9.704;2023-04-24T12:36:04;30.8;;;27.7;;
79592;SDS011;69074;45.164;9.704;2023-04-24T12:38:29;30.8;;;27.7;;
79592;SDS011;69074;45.164;9.704;2023-04-24T12:41:01;30.8;;;27.7;;
79592;SDS011;69074;45.164;9.704;2023-04-24T12:43:19;30.8;;;27.7;;
79592;SDS011;69074;45.164;9.704;2023-04-24T12:45:44;30.8;;;27.7;;
79592;SDS011;69074;45.164;9.704;2023-04-24T12:48:09;30.8;;;27.7;;
79592;SDS011;69074;45.164;9.704;2023-04-24T12:50:34;30.8;;;27.7;;
79592;SDS011;69074;45.164;9.704;2023-04-24T12:52:59;34.2;;;30.6;;
79592;SDS011;69074;45.164;9.704;2023-04-24T12:55:24;34.2;;;30.6;;
79592;SDS011;69074;45.164;9.704;2023-04-24T12:57:49;34.2;;;30.6;;
79592;SDS011;69074;45.164;9.704;2023-04-24T13:00:14;34.2;;;30.6;;
79592;SDS011;69074;45.164;9.704;2023-04-24T13:02:39;34.2;;;30.6;;
79592;SDS011;69074;45.164;9.704;2023-04-24T13:05:04;34.2;;;30.6;;
79592;SDS011;69074;45.164;9.704;2023-04-24T13:07:29;41.3;;;37.1;;
79592;SDS011;69074;45.164;9.704;2023-04-24T13:09:54;41.3;;;37.1;;
79592;SDS011;69074;45.164;9.704;2023-04-24T13:12:19;41.3;;;37.1;;
79592;SDS011;69074;45.164;9.704;2023-04-24T13:14:44;41.3;;;37.1;;
79592;SDS011;69074;45.164;9.704;2023-04-24T13:17:09;41.3;;;37.1;;
79592;SDS011;69074;45.164;9.704;2023-04-24T13:19:35;41.3;;;37.1;;
79592;SDS011;69074;45.164;9.704;2023-04-24T13:21:59;45.3;;;40.5;;
79592;SDS011;69074;45.164;9.704;2023-04-24T13:24:24;45.3;;;40.5;;
79592;SDS011;69074;45.164;9.704;2023-04-24T13:26:49;45.3;;;40.5;;
79592;SDS011;69074;45.164;9.704;2023-04-24T13:29:14;45.3;;;40.5;;
79592;SDS011;69074;45.164;9.704;2023-04-24T13:31:39;45.3;;;40.5;;
79592;SDS011;69074;45.164;9.704;2023-04-24T13:34:04;36.9;;;32.4;;
79592;SDS011;69074;45.164;9.704;2023-04-24T13:36:29;36.9;;;32.4;;
79592;SDS011;69074;45.164;9.704;2023-04-24T13:38:54;36.9;;;32.4;;
79592;SDS011;69074;45.164;9.704;2023-04-24T13:41:19;36.9;;;32.4;;
79592;SDS011;69074;45.164;9.704;2023-04-24T13:43:44;36.9;;;32.4;;
79592;SDS011;69074;45.164;9.704;2023-04-24T13:46:09;36.9;;;32.4;;
79592;SDS011;69074;45.164;9.704;2023-04-24T13:48:34;64.3;;;56.2;;
79592;SDS011;69074;45.164;9.704;2023-04-24T13:50:59;64.3;;;56.2;;
79592;SDS011;69074;45.164;9.704;2023-04-24T13:53:24;64.3;;;56.2;;
79592;SDS011;69074;45.164;9.704;2023-04-24T13:55:49;64.3;;;56.2;;
79592;SDS011;69074;45.164;9.704;2023-04-24T13:58:14;64.3;;;56.2;;
79592;SDS011;69074;45.164;9.704;2023-04-24T14:00:39;64.3;;;56.2;;
79592;SDS011;69074;45.164;9.704;2023-04-24T14:03:04;65.4;;;56.6;;
79592;SDS011;69074;45.164;9.704;2023-04-24T14:05:29;65.4;;;56.6;;
79592;SDS011;69074;45.164;9.704;2023-04-24T14:07:54;65.4;;;56.6;;
79592;SDS011;69074;45.164;9.704;2023-04-24T14:10:19;65.4;;;56.6;;
79592;SDS011;69074;45.164;9.704;2023-04-24T14:12:44;65.4;;;56.6;;
79592;SDS011;69074;45.164;9.704;2023-04-24T14:15:09;65.4;;;56.6;;
79592;SDS011;69074;45.164;9.704;2023-04-24T14:17:34;65.8;;;56.6;;
79592;SDS011;69074;45.164;9.704;2023-04-24T14:19:59;65.8;;;56.6;;
79592;SDS011;69074;45.164;9.704;2023-04-24T14:22:24;65.8;;;56.6;;
79592;SDS011;69074;45.164;9.704;2023-04-24T14:24:49;65.8;;;56.6;;
79592;SDS011;69074;45.164;9.704;2023-04-24T14:27:14;65.8;;;56.6;;
79592;SDS011;69074;45.164;9.704;2023-04-24T14:29:39;65.8;;;56.6;;
79592;SDS011;69074;45.164;9.704;2023-04-24T14:32:04;65.8;;;56.6;;
79592;SDS011;69074;45.164;9.704;2023-04-24T14:34:29;63.2;;;56.3;;
79592;SDS011;69074;45.164;9.704;2023-04-24T14:36:54;63.2;;;56.3;;
79592;SDS011;69074;45.164;9.704;2023-04-24T14:39:19;63.2;;;56.3;;
79592;SDS011;69074;45.164;9.704;2023-04-24T14:41:44;63.2;;;56.3;;
79592;SDS011;69074;45.164;9.704;2023-04-24T14:44:09;63.2;;;56.3;;
79592;SDS011;69074;45.164;9.704;2023-04-24T14:46:34;63.2;;;56.3;;
79592;SDS011;69074;45.164;9.704;2023-04-24T14:48:59;61.2;;;54.9;;